createdAt,value
2022-11-22T00:00:45.876Z,99313.88
2022-11-22T00:03:13.817Z,99309.34
2022-11-22T00:05:41.790Z,99312.84
2022-11-22T00:08:09.882Z,99313.88
2022-11-22T00:10:39.203Z,99307.69
2022-11-22T00:13:07.136Z,99303.94
2022-11-22T00:15:35.128Z,99295.00
2022-11-22T00:18:03.082Z,99295.00
2022-11-22T00:20:31.036Z,99294.44
2022-11-22T00:22:59.022Z,99303.09
2022-11-22T00:25:26.963Z,99304.97
2022-11-22T00:27:56.341Z,99293.59
2022-11-22T00:30:24.204Z,99290.69
2022-11-22T00:32:53.158Z,99290.69
2022-11-22T00:35:21.162Z,99288.00
2022-11-22T00:37:49.076Z,99285.28
2022-11-22T00:40:18.446Z,99286.38
2022-11-22T00:42:46.363Z,99285.28
2022-11-22T00:45:15.810Z,99275.81
2022-11-22T00:47:43.798Z,99282.00
2022-11-22T00:50:11.907Z,99276.63
2022-11-22T00:52:39.878Z,99261.50
2022-11-22T00:55:08.775Z,99253.41
2022-11-22T00:57:36.775Z,99248.03
2022-11-22T01:00:06.859Z,99248.03
2022-11-22T01:02:36.183Z,99248.25
2022-11-22T01:05:04.103Z,99247.22
2022-11-22T01:07:32.294Z,99240.16
2022-11-22T01:10:00.218Z,99246.38
2022-11-22T01:12:28.126Z,99249.06
2022-11-22T01:14:55.990Z,99250.13
2022-11-22T01:17:23.978Z,99250.94
2022-11-22T01:19:54.677Z,99255.53
2022-11-22T01:22:22.652Z,99266.31
2022-11-22T01:24:50.591Z,99263.03
2022-11-22T01:27:18.462Z,99258.69
2022-11-22T01:29:46.435Z,99260.59
2022-11-22T01:32:14.315Z,99251.09
2022-11-22T01:34:42.270Z,99249.22
2022-11-22T01:37:11.636Z,99247.34
2022-11-22T01:39:39.588Z,99248.41
2022-11-22T01:42:07.618Z,99238.66
2022-11-22T01:44:35.542Z,99245.13
2022-11-22T01:47:05.321Z,99240.31
2022-11-22T01:49:34.851Z,99236.81
2022-11-22T01:52:04.538Z,99232.44
2022-11-22T01:54:35.062Z,99220.84
2022-11-22T01:57:04.849Z,99212.19
2022-11-22T01:59:33.713Z,99206.78
2022-11-22T02:02:01.735Z,99204.09
2022-11-22T02:04:29.865Z,99200.59
2022-11-22T02:07:00.986Z,99205.16
2022-11-22T02:09:29.214Z,99199.78
2022-11-22T02:11:59.756Z,99205.16
2022-11-22T02:14:29.010Z,99198.97
2022-11-22T02:16:57.023Z,99198.13
2022-11-22T02:19:28.338Z,99196.47
2022-11-22T02:21:57.858Z,99196.47
2022-11-22T02:24:27.682Z,99194.84
2022-11-22T02:26:57.029Z,99178.69
2022-11-22T02:29:24.996Z,99188.63
2022-11-22T02:31:52.992Z,99200.25
2022-11-22T02:34:20.941Z,99200.47
2022-11-22T02:36:50.439Z,99199.41
2022-11-22T02:39:19.704Z,99194.03
2022-11-22T02:41:47.674Z,99191.56
2022-11-22T02:44:17.011Z,99190.50
2022-11-22T02:46:49.263Z,99177.03
2022-11-22T02:49:19.716Z,99185.94
2022-11-22T02:51:47.828Z,99177.84
2022-11-22T02:54:15.720Z,99178.69
2022-11-22T02:56:43.896Z,99173.28
2022-11-22T02:59:11.934Z,99174.09
2022-11-22T03:01:41.354Z,99174.09
2022-11-22T03:04:09.277Z,99176.81
2022-11-22T03:06:37.274Z,99171.16
2022-11-22T03:09:05.203Z,99169.53
2022-11-22T03:11:33.156Z,99169.53
2022-11-22T03:14:01.115Z,99163.34
2022-11-22T03:16:30.935Z,99163.34
2022-11-22T03:19:00.338Z,99155.25
2022-11-22T03:21:29.757Z,99155.25
2022-11-22T03:23:57.748Z,99153.34
2022-11-22T03:26:25.783Z,99145.50
2022-11-22T03:28:53.736Z,99151.75
2022-11-22T03:31:21.703Z,99150.66
2022-11-22T03:33:49.668Z,99153.34
2022-11-22T03:36:18.978Z,99146.34
2022-11-22T03:38:46.865Z,99149.03
2022-11-22T03:41:14.814Z,99151.75
2022-11-22T03:43:42.816Z,99144.69
2022-11-22T03:46:15.375Z,99135.56
2022-11-22T03:48:43.733Z,99139.28
2022-11-22T03:51:11.618Z,99133.09
2022-11-22T03:53:40.963Z,99137.66
2022-11-22T03:56:08.977Z,99137.66
2022-11-22T03:58:36.931Z,99130.63
2022-11-22T04:01:04.945Z,99135.16
2022-11-22T04:03:32.903Z,99135.16
2022-11-22T04:06:00.846Z,99130.63
2022-11-22T04:08:28.897Z,99137.88
2022-11-22T04:10:58.216Z,99134.34
2022-11-22T04:13:46.425Z,99133.53
2022-11-22T04:16:13.437Z,99121.94
2022-11-22T04:18:41.423Z,99123.00
2022-11-22T04:21:26.846Z,99119.75
2022-11-22T04:24:08.654Z,99128.38
2022-11-22T04:26:38.011Z,99118.66
2022-11-22T04:29:10.318Z,99112.47
2022-11-22T04:31:55.935Z,99118.66
2022-11-22T04:34:24.499Z,99125.13
2022-11-22T04:36:52.567Z,99126.16
2022-11-22T04:39:20.516Z,99122.44
2022-11-22T04:42:10.381Z,99115.38
2022-11-22T04:44:41.596Z,99115.38
2022-11-22T04:47:09.827Z,99110.81
2022-11-22T04:49:37.725Z,99108.38
2022-11-22T04:52:24.405Z,99098.41
2022-11-22T04:54:54.398Z,99095.94
2022-11-22T04:57:23.694Z,99082.47
2022-11-22T04:59:53.114Z,99070.88
2022-11-22T05:02:22.366Z,99083.53
2022-11-22T05:04:50.921Z,99086.81
2022-11-22T05:07:19.006Z,99087.84
2022-11-22T05:09:46.946Z,99082.25
2022-11-22T05:12:14.834Z,99081.44
2022-11-22T05:14:44.228Z,99077.66
2022-11-22T05:17:13.509Z,99074.97
2022-11-22T05:19:44.982Z,99076.63
2022-11-22T05:22:17.062Z,99070.66
2022-11-22T05:24:44.084Z,99073.09
2022-11-22T05:27:12.074Z,99073.09
2022-11-22T05:29:40.053Z,99073.09
2022-11-22T05:32:09.372Z,99079.31
2022-11-22T05:34:37.257Z,99070.16
2022-11-22T05:37:05.194Z,99068.53
2022-11-22T05:39:33.137Z,99072.84
2022-11-22T05:42:01.058Z,99068.53
2022-11-22T05:44:29.047Z,99060.44
2022-11-22T05:46:56.931Z,99058.56
2022-11-22T05:49:26.209Z,99053.19
2022-11-22T05:51:54.210Z,99057.75
2022-11-22T05:54:22.182Z,99059.38
2022-11-22T05:56:50.178Z,99052.38
2022-11-22T05:59:18.188Z,99049.66
2022-11-22T06:01:47.612Z,99042.63
2022-11-22T06:04:15.513Z,99049.91
2022-11-22T06:06:44.785Z,99044.50
2022-11-22T06:09:12.738Z,99052.38
2022-11-22T06:11:40.677Z,99038.88
2022-11-22T06:14:10.302Z,99042.63
2022-11-22T06:16:38.193Z,99039.94
2022-11-22T06:19:06.202Z,99042.41
2022-11-22T06:21:34.094Z,99036.19
2022-11-22T06:24:03.367Z,99028.66
2022-11-22T06:26:34.745Z,99032.44
2022-11-22T06:29:06.925Z,99029.72
2022-11-22T06:31:34.793Z,99026.22
2022-11-22T06:34:02.738Z,99020.84
2022-11-22T06:36:31.426Z,99023.28
2022-11-22T06:38:59.454Z,99013.56
2022-11-22T06:41:29.723Z,99018.72
2022-11-22T06:43:57.703Z,99013.34
2022-11-22T06:46:27.315Z,99015.19
2022-11-22T06:48:55.242Z,99016.84
2022-11-22T06:51:23.686Z,99008.75
2022-11-22T06:53:51.686Z,99008.75
2022-11-22T06:56:20.445Z,99012.25
2022-11-22T06:58:50.418Z,99006.06
2022-11-22T07:01:19.310Z,99011.19
2022-11-22T07:03:47.373Z,99022.81
2022-11-22T07:06:15.847Z,99017.44
2022-11-22T07:08:44.402Z,99006.66
2022-11-22T07:11:13.013Z,99013.69
2022-11-22T07:13:40.988Z,99009.09
2022-11-22T07:16:11.619Z,99004.31
2022-11-22T07:18:39.661Z,99001.59
2022-11-22T07:21:12.860Z,98994.91
2022-11-22T07:23:41.343Z,98998.19
2022-11-22T07:26:09.278Z,98988.22
2022-11-22T07:28:37.265Z,98985.25
2022-11-22T07:31:06.117Z,98979.88
2022-11-22T07:33:35.533Z,98965.34
2022-11-22T07:36:05.303Z,98971.56
2022-11-22T07:38:33.271Z,98972.38
2022-11-22T07:41:01.139Z,98972.38
2022-11-22T07:43:29.040Z,98981.03
2022-11-22T07:45:59.854Z,98986.41
2022-11-22T07:48:27.730Z,98986.19
2022-11-22T07:50:57.019Z,98986.19
2022-11-22T07:53:24.901Z,98980.81
2022-11-22T07:55:52.836Z,98960.84
2022-11-22T07:58:20.743Z,98963.28
2022-11-22T08:00:48.691Z,98966.81
2022-11-22T08:03:17.922Z,98971.16
2022-11-22T08:05:46.571Z,98961.44
2022-11-22T08:08:15.901Z,98959.78
2022-11-22T08:10:45.165Z,98956.28
2022-11-22T08:13:13.227Z,98948.19
2022-11-22T08:15:41.188Z,98950.66
2022-11-22T08:18:09.148Z,98946.06
2022-11-22T08:20:37.075Z,98939.88
2022-11-22T08:23:05.032Z,98929.31
2022-11-22T08:25:34.314Z,98927.44
2022-11-22T08:28:02.253Z,98929.91
2022-11-22T08:30:30.196Z,98932.31
2022-11-22T08:32:58.192Z,98926.38
2022-11-22T08:35:26.104Z,98926.38
2022-11-22T08:37:57.294Z,98922.03
2022-11-22T08:40:25.537Z,98910.44
2022-11-22T08:42:56.941Z,98923.94
2022-11-22T08:45:24.953Z,98926.03
2022-11-22T08:47:52.884Z,98927.69
2022-11-22T08:50:20.876Z,98923.13
2022-11-22T08:52:48.822Z,98932.00
2022-11-22T08:55:16.855Z,98932.00
2022-11-22T08:57:45.007Z,98930.94
2022-11-22T09:00:16.232Z,98924.50
2022-11-22T09:02:44.473Z,98921.00
2022-11-22T09:05:12.424Z,98913.13
2022-11-22T09:10:28.604Z,98897.53
2022-11-22T09:12:56.581Z,98891.06
2022-11-22T09:15:25.916Z,98882.50
2022-11-22T09:17:53.796Z,98886.56
2022-11-22T09:20:21.817Z,98880.13
2022-11-22T09:22:49.853Z,98879.56
2022-11-22T09:25:17.997Z,98876.06
2022-11-22T09:27:46.122Z,98866.88
2022-11-22T09:30:15.124Z,98871.72
2022-11-22T09:32:48.486Z,98855.53
2022-11-22T09:35:20.253Z,98855.53
2022-11-22T09:37:48.202Z,98849.31
2022-11-22T09:40:16.478Z,98829.66
2022-11-22T09:43:06.518Z,98825.06
2022-11-22T09:48:29.294Z,98812.09
2022-11-22T09:50:59.194Z,98795.91
2022-11-22T09:53:29.752Z,98788.06
2022-11-22T09:55:58.641Z,98786.44
2022-11-22T09:58:29.848Z,98789.13
2022-11-22T10:01:00.836Z,98780.25
2022-11-22T10:03:31.872Z,98791.25
2022-11-22T10:06:01.327Z,98784.25
2022-11-22T10:08:37.057Z,98776.16
2022-11-22T10:11:05.908Z,98784.47
2022-11-22T10:13:36.702Z,98782.06
2022-11-22T10:16:06.623Z,98769.63
2022-11-22T10:18:39.917Z,98757.22
2022-11-22T10:21:11.158Z,98756.66
2022-11-22T10:23:39.150Z,98752.34
2022-11-22T10:26:13.007Z,98732.91
2022-11-22T10:28:44.347Z,98725.63
2022-11-22T10:31:16.540Z,98724.25
2022-11-22T10:33:48.409Z,98722.63
2022-11-22T10:36:25.956Z,98713.13
2022-11-22T10:39:09.741Z,98709.34
2022-11-22T10:41:46.336Z,98696.94
2022-11-22T10:44:21.037Z,98667.53
2022-11-22T10:46:56.473Z,98661.34
2022-11-22T10:49:30.521Z,98642.75
2022-11-22T10:52:00.369Z,98623.38
2022-11-22T10:54:30.430Z,98617.50
2022-11-22T10:57:00.572Z,98623.13
2022-11-22T10:59:37.693Z,98620.69
2022-11-22T11:02:16.326Z,98620.69
2022-11-22T11:04:45.846Z,98614.50
2022-11-22T11:07:15.883Z,98610.72
2022-11-22T11:12:43.287Z,98616.09
2022-11-22T11:15:16.886Z,98613.16
2022-11-22T11:17:44.854Z,98618.00
2022-11-22T11:20:17.455Z,98619.63
2022-11-22T11:23:13.031Z,98618.56
2022-11-22T11:25:34.451Z,98602.63
2022-11-22T11:28:04.975Z,98606.94
2022-11-22T11:30:39.275Z,98591.03
2022-11-22T11:33:17.687Z,98581.88
2022-11-22T11:35:47.159Z,98575.94
2022-11-22T11:38:31.159Z,98565.41
2022-11-22T11:40:59.269Z,98565.41
2022-11-22T11:43:27.377Z,98570.53
2022-11-22T11:45:55.388Z,98559.75
2022-11-22T11:48:30.239Z,98545.75
2022-11-22T11:51:24.595Z,98544.91
2022-11-22T11:53:56.193Z,98553.25
2022-11-22T11:56:33.803Z,98550.00
2022-11-22T11:59:05.860Z,98552.13
2022-11-22T12:01:38.805Z,98547.81
2022-11-22T12:04:07.729Z,98556.72
2022-11-22T12:06:36.979Z,98560.47
2022-11-22T12:09:10.768Z,98564.50
2022-11-22T12:11:45.431Z,98557.47
2022-11-22T12:14:21.454Z,98568.22
2022-11-22T12:16:49.872Z,98563.94
2022-11-22T12:19:25.021Z,98552.56
2022-11-22T12:21:57.415Z,98549.88
2022-11-22T12:25:03.111Z,98553.38
2022-11-22T12:27:17.005Z,98560.66
2022-11-22T12:29:45.555Z,98560.66
2022-11-22T12:32:15.664Z,98548.28
2022-11-22T12:34:47.892Z,98545.31
2022-11-22T12:37:18.536Z,98531.84
2022-11-22T12:39:50.255Z,98527.53
2022-11-22T12:42:23.293Z,98525.22
2022-11-22T12:44:54.430Z,98519.25
2022-11-22T12:47:23.884Z,98519.03
2022-11-22T12:49:53.300Z,98513.38
2022-11-22T12:52:24.668Z,98522.28
2022-11-22T12:54:59.224Z,98524.97
2022-11-22T12:57:30.159Z,98503.44
2022-11-22T13:00:03.118Z,98493.72
2022-11-22T13:02:33.311Z,98494.78
2022-11-22T13:05:03.998Z,98487.75
2022-11-22T13:07:44.131Z,98497.47
2022-11-22T13:10:19.593Z,98479.13
2022-11-22T13:12:50.368Z,98490.72
2022-11-22T13:15:20.839Z,98478.88
2022-11-22T13:17:50.048Z,98486.94
2022-11-22T13:20:18.814Z,98483.44
2022-11-22T13:22:53.134Z,98476.19
2022-11-22T13:25:43.305Z,98456.50
2022-11-22T13:28:14.678Z,98460.00
2022-11-22T13:30:42.963Z,98453.00
2022-11-22T13:33:24.529Z,98443.84
2022-11-22T13:35:52.480Z,98443.06
2022-11-22T13:38:22.098Z,98433.09
2022-11-22T13:40:51.349Z,98439.53
2022-11-22T13:43:51.461Z,98430.91
2022-11-22T13:47:00.910Z,98412.28
2022-11-22T13:49:39.244Z,98420.66
2022-11-22T13:52:46.878Z,98404.47
2022-11-22T13:55:30.172Z,98404.72
2022-11-22T13:58:22.400Z,98395.03
2022-11-22T14:00:51.166Z,98380.75
2022-11-22T14:03:38.155Z,98386.16
2022-11-22T14:06:25.289Z,98379.13
2022-11-22T14:09:17.909Z,98375.38
2022-11-22T14:11:52.245Z,98378.31
2022-11-22T14:14:21.915Z,98366.75
2022-11-22T14:16:59.106Z,98369.44
2022-11-22T14:19:35.186Z,98352.47
2022-11-22T14:22:14.464Z,98356.22
2022-11-22T14:24:47.688Z,98350.00
2022-11-22T14:27:25.673Z,98341.13
2022-11-22T14:30:02.935Z,98346.50
2022-11-22T14:32:42.460Z,98341.13
2022-11-22T14:35:28.969Z,98345.94
2022-11-22T14:38:40.069Z,98339.53
2022-11-22T14:41:42.431Z,98334.13
2022-11-22T14:44:15.191Z,98338.63
2022-11-22T14:46:53.332Z,98336.69
2022-11-22T14:49:28.473Z,98339.09
2022-11-22T14:51:57.536Z,98330.78
2022-11-22T14:54:28.107Z,98329.69
2022-11-22T14:56:59.908Z,98328.94
2022-11-22T14:59:56.380Z,98320.63
2022-11-22T15:03:06.654Z,98310.66
2022-11-22T15:09:10.830Z,98329.50
2022-11-22T15:09:17.237Z,98330.31
2022-11-22T15:11:49.472Z,98326.00
2022-11-22T15:14:43.228Z,98323.03
2022-11-22T15:57:44.909Z,98320.72
2022-11-22T16:00:22.220Z,98319.88
2022-11-22T16:02:51.014Z,98323.41
2022-11-22T16:06:04.368Z,98315.34
2022-11-22T16:08:14.674Z,98314.50
2022-11-22T16:10:45.638Z,98315.34
2022-11-22T16:13:14.249Z,98316.13
2022-11-22T16:15:42.913Z,98311.56
2022-11-22T16:18:15.131Z,98303.22
2022-11-22T16:20:44.354Z,98291.63
2022-11-22T16:23:26.464Z,98275.75
2022-11-22T16:25:57.115Z,98275.47
2022-11-22T16:28:33.331Z,98275.47
2022-11-22T16:31:03.948Z,98293.28
2022-11-22T16:33:31.890Z,98287.88
2022-11-22T16:36:02.206Z,98265.78
2022-11-22T16:38:31.617Z,98269.56
2022-11-22T16:41:00.773Z,98278.69
2022-11-22T16:43:31.065Z,98292.94
2022-11-22T16:46:01.078Z,98286.75
2022-11-22T16:48:32.234Z,98265.22
2022-11-22T16:51:05.180Z,98254.97
2022-11-22T16:53:39.520Z,98254.97
2022-11-22T16:56:08.559Z,98252.28
2022-11-22T16:58:36.585Z,98242.31
2022-11-22T17:01:06.364Z,98253.09
2022-11-22T17:03:34.352Z,98244.19
2022-11-22T17:06:03.036Z,98245.81
2022-11-22T17:08:30.976Z,98246.09
2022-11-22T17:11:02.177Z,98259.78
2022-11-22T17:13:30.062Z,98252.53
2022-11-22T17:15:59.216Z,98256.28
2022-11-22T17:18:27.138Z,98249.03
2022-11-22T17:20:56.174Z,98249.03
2022-11-22T17:23:27.808Z,98239.34
2022-11-22T17:25:56.393Z,98234.75
2022-11-22T17:28:27.852Z,98234.75
2022-11-22T17:30:56.517Z,98223.19
2022-11-22T17:33:24.982Z,98235.84
2022-11-22T17:35:52.910Z,98244.72
2022-11-22T17:38:22.689Z,98253.84
2022-11-22T17:40:51.334Z,98260.06
2022-11-22T17:43:20.031Z,98268.38
2022-11-22T17:45:49.598Z,98243.09
2022-11-22T17:48:19.015Z,98246.59
2022-11-22T17:50:47.035Z,98246.84
2022-11-22T17:53:15.711Z,98246.03
2022-11-22T17:56:09.057Z,98263.53
2022-11-22T17:58:32.407Z,98242.28
2022-11-22T18:01:05.667Z,98251.16
2022-11-22T18:03:34.401Z,98241.75
2022-11-22T18:06:02.417Z,98244.19
2022-11-22T18:08:32.478Z,98228.03
2022-11-22T18:11:00.822Z,98228.03
2022-11-22T18:13:29.630Z,98245.81
2022-11-22T18:16:03.283Z,98240.44
2022-11-22T18:18:55.572Z,98230.50
2022-11-22T18:21:22.089Z,98220.78
2022-11-22T18:23:50.734Z,98225.09
2022-11-22T18:31:56.782Z,98187.41
2022-11-22T18:34:26.950Z,98182.84
2022-11-22T18:37:00.893Z,98183.63
2022-11-22T18:39:32.396Z,98182.84
2022-11-22T18:42:00.619Z,98165.59
2022-11-22T18:44:31.322Z,98171.78
2022-11-22T18:46:59.270Z,98172.88
2022-11-22T18:49:30.802Z,98162.91
2022-11-22T18:51:58.958Z,98176.38
2022-11-22T18:54:27.694Z,98166.69
2022-11-22T18:56:55.574Z,98173.69
2022-11-22T18:59:26.316Z,98179.06
2022-11-22T19:01:55.525Z,98177.44
2022-11-22T19:04:24.307Z,98185.25
2022-11-22T19:06:55.425Z,98168.28
2022-11-22T19:09:24.240Z,98176.38
2022-11-22T19:11:58.229Z,98170.47
2022-11-22T19:14:30.484Z,98164.53
2022-11-22T19:16:58.695Z,98149.19
2022-11-22T19:19:27.435Z,98153.78
2022-11-22T19:21:56.926Z,98165.34
2022-11-22T19:24:25.622Z,98159.16
2022-11-22T19:26:55.869Z,98158.59
2022-11-22T19:29:24.666Z,98155.91
2022-11-22T19:31:52.655Z,98163.97
2022-11-22T19:34:22.587Z,98173.13
2022-11-22T19:36:50.505Z,98161.28
2022-11-22T19:39:21.130Z,98159.66
2022-11-22T19:41:49.154Z,98168.00
2022-11-22T19:44:17.802Z,98163.44
2022-11-22T19:46:45.864Z,98182.84
2022-11-22T19:49:15.370Z,98167.72
2022-11-22T19:51:43.323Z,98162.34
2022-11-22T19:54:12.113Z,98158.84
2022-11-22T19:56:46.535Z,98151.06
2022-11-22T19:59:18.154Z,98156.44
2022-11-22T20:01:46.202Z,98139.72
2022-11-22T20:04:14.568Z,98139.44
2022-11-22T20:06:48.614Z,98139.19
2022-11-22T20:09:18.851Z,98136.50
2022-11-22T20:11:48.179Z,98149.44
2022-11-22T20:14:16.053Z,98147.88
2022-11-22T20:16:44.794Z,98144.09
2022-11-22T20:19:12.770Z,98139.25
2022-11-22T20:21:41.668Z,98158.66
2022-11-22T20:24:09.976Z,98153.81
2022-11-22T20:26:39.426Z,98160.03
2022-11-22T20:29:13.026Z,98155.72
2022-11-22T20:31:41.959Z,98150.09
2022-11-22T20:34:10.316Z,98134.47
2022-11-22T20:36:39.030Z,98120.75
2022-11-22T20:39:10.654Z,98109.16
2022-11-22T20:41:39.908Z,98132.06
2022-11-22T20:44:12.697Z,98122.91
2022-11-22T20:46:41.661Z,98109.44
2022-11-22T20:49:09.689Z,98111.88
2022-11-22T20:51:40.423Z,98114.28
2022-11-22T20:54:08.600Z,98109.75
2022-11-22T20:56:37.469Z,98100.56
2022-11-22T20:59:05.657Z,98112.97
2022-11-22T21:01:37.235Z,98104.63
2022-11-22T21:04:05.173Z,98110.81
2022-11-22T21:06:36.453Z,98089.25
2022-11-22T21:09:04.557Z,98085.47
2022-11-22T21:11:33.436Z,98094.13
2022-11-22T21:14:01.326Z,98105.69
2022-11-22T21:16:30.664Z,98108.16
2022-11-22T21:19:01.207Z,98096.56
2022-11-22T21:21:30.460Z,98093.59
2022-11-22T21:23:59.389Z,98095.22
2022-11-22T21:26:28.968Z,98101.69
2022-11-22T21:28:57.942Z,98102.53
2022-11-22T21:31:25.911Z,98093.13
2022-11-22T21:33:55.443Z,98092.31
2022-11-22T21:36:25.088Z,98082.34
2022-11-22T21:38:53.857Z,98070.22
2022-11-22T21:44:11.541Z,98082.06
2022-11-22T21:46:40.027Z,98086.88
2022-11-22T21:49:09.084Z,98085.03
2022-11-22T21:51:38.401Z,98084.19
2022-11-22T21:54:07.364Z,98085.53
2022-11-22T21:56:35.434Z,98105.22
2022-11-22T21:59:04.192Z,98092.56
2022-11-22T22:01:32.306Z,98106.28
2022-11-22T22:04:01.009Z,98099.28
2022-11-22T22:06:29.020Z,98115.69
2022-11-22T22:08:59.684Z,98109.75
2022-11-22T22:11:27.574Z,98100.31
2022-11-22T22:13:56.482Z,98104.91
2022-11-22T22:16:26.019Z,98094.13
2022-11-22T22:18:56.423Z,98107.03
2022-11-22T22:21:24.453Z,98098.44
2022-11-22T22:23:53.462Z,98090.34
2022-11-22T22:26:23.616Z,98095.75
2022-11-22T22:28:53.428Z,98079.03
2022-11-22T22:31:23.240Z,98076.59
2022-11-22T22:33:53.991Z,98077.66
2022-11-22T22:36:22.750Z,98105.94
2022-11-22T22:39:46.475Z,98110.53
2022-11-22T22:42:15.833Z,98109.44
2022-11-22T22:44:45.444Z,98111.56
2022-11-22T22:47:13.455Z,98116.97
2022-11-22T22:49:42.143Z,98107.03
2022-11-22T22:52:10.379Z,98106.19
2022-11-22T22:54:38.284Z,98111.31
2022-11-22T22:57:06.898Z,98089.22
2022-11-22T22:59:36.220Z,98100.00
2022-11-22T23:02:05.097Z,98105.66
2022-11-22T23:04:32.990Z,98108.06
2022-11-22T23:07:01.326Z,98108.34
2022-11-22T23:09:29.440Z,98105.66
2022-11-22T23:12:12.567Z,98109.41
2022-11-22T23:14:41.940Z,98101.59
2022-11-22T23:17:10.241Z,98105.34
2022-11-22T23:19:38.167Z,98101.06
2022-11-22T23:22:06.264Z,98089.47
2022-11-22T23:24:34.245Z,98104.84
2022-11-22T23:27:02.202Z,98103.19
2022-11-22T23:29:30.795Z,98100.50
2022-11-22T23:32:00.314Z,98105.34
2022-11-22T23:34:28.216Z,98109.66
2022-11-22T23:36:57.453Z,98115.56
2022-11-22T23:39:26.612Z,98108.03
2022-11-22T23:41:55.837Z,98099.16
2022-11-22T23:44:25.239Z,98084.31
2022-11-22T23:46:54.265Z,98098.31
2022-11-22T23:49:25.176Z,98110.16
2022-11-22T23:51:54.567Z,98112.31
2022-11-22T23:54:23.519Z,98110.69
2022-11-22T23:56:52.709Z,98114.44
2022-11-22T23:59:22.464Z,98112.03
